createdAt,value
2018-05-31T00:01:21.009Z,19.70
2018-05-31T00:04:23.538Z,19.66
2018-05-31T00:07:26.103Z,19.68
2018-05-31T00:10:28.591Z,19.85
2018-05-31T00:13:31.197Z,19.87
2018-05-31T00:16:33.767Z,19.76
2018-05-31T00:19:36.290Z,19.71
2018-05-31T00:22:38.799Z,19.69
2018-05-31T00:25:41.271Z,19.63
2018-05-31T00:28:43.789Z,19.65
2018-05-31T00:31:46.284Z,19.63
2018-05-31T00:34:48.776Z,19.61
2018-05-31T00:37:51.227Z,19.56
2018-05-31T00:40:53.752Z,19.53
2018-05-31T00:43:56.240Z,19.46
2018-05-31T00:46:58.743Z,19.33
2018-05-31T00:50:01.195Z,19.21
2018-05-31T00:53:03.738Z,19.12
2018-05-31T00:56:17.235Z,19.08
2018-05-31T00:59:19.724Z,19.07
2018-05-31T01:02:22.201Z,19.02
2018-05-31T01:05:24.690Z,19.00
2018-05-31T01:08:27.189Z,18.97
2018-05-31T01:11:29.704Z,18.97
2018-05-31T01:14:32.208Z,18.96
2018-05-31T01:17:34.713Z,18.95
2018-05-31T01:20:37.222Z,18.95
2018-05-31T01:23:39.760Z,18.95
2018-05-31T01:26:42.312Z,19.00
2018-05-31T01:29:44.829Z,19.02
2018-05-31T01:32:47.367Z,19.03
2018-05-31T01:35:49.883Z,19.00
2018-05-31T01:38:52.421Z,19.01
2018-05-31T01:41:54.938Z,18.99
2018-05-31T01:44:57.384Z,18.99
2018-05-31T01:47:59.879Z,18.94
2018-05-31T01:51:02.385Z,18.92
2018-05-31T01:54:04.871Z,18.88
2018-05-31T01:57:07.403Z,18.91
2018-05-31T02:00:09.870Z,18.84
2018-05-31T02:03:12.373Z,18.71
2018-05-31T02:06:14.877Z,18.68
2018-05-31T02:09:17.354Z,18.62
2018-05-31T02:12:19.915Z,18.57
2018-05-31T02:15:22.424Z,18.56
2018-05-31T02:18:24.865Z,18.53
2018-05-31T02:21:27.528Z,18.47
2018-05-31T02:24:30.039Z,18.42
2018-05-31T02:27:32.538Z,18.41
2018-05-31T02:30:35.059Z,18.39
2018-05-31T02:33:37.569Z,18.40
2018-05-31T02:36:40.071Z,18.41
2018-05-31T02:39:42.539Z,18.46
2018-05-31T02:42:45.045Z,18.40
2018-05-31T02:45:47.512Z,18.32
2018-05-31T02:48:49.993Z,18.18
2018-05-31T02:51:52.425Z,18.15
2018-05-31T02:54:54.990Z,18.17
2018-05-31T02:57:57.490Z,18.21
2018-05-31T03:00:59.950Z,18.21
2018-05-31T03:04:02.481Z,18.27
2018-05-31T03:07:04.946Z,18.27
2018-05-31T03:10:07.462Z,18.22
2018-05-31T03:13:09.915Z,18.18
2018-05-31T03:16:12.423Z,18.19
2018-05-31T03:19:14.900Z,18.23
2018-05-31T03:22:17.455Z,18.26
2018-05-31T03:25:20.021Z,18.29
2018-05-31T03:28:22.520Z,18.37
2018-05-31T03:31:25.035Z,18.42
2018-05-31T03:34:27.528Z,18.53
2018-05-31T03:37:30.073Z,18.78
2018-05-31T03:40:32.547Z,18.95
2018-05-31T03:43:35.084Z,19.38
2018-05-31T03:46:37.644Z,19.96
2018-05-31T03:49:40.100Z,19.98
2018-05-31T03:52:42.601Z,20.54
2018-05-31T03:55:45.084Z,20.84
2018-05-31T03:58:47.589Z,20.90
2018-05-31T04:01:50.081Z,20.69
2018-05-31T04:04:52.574Z,21.36
2018-05-31T04:07:55.034Z,21.72
2018-05-31T04:10:58.411Z,22.44
2018-05-31T04:14:00.931Z,22.96
2018-05-31T04:17:03.479Z,24.03
2018-05-31T04:20:05.985Z,24.31
2018-05-31T04:23:08.465Z,24.91
2018-05-31T04:26:10.975Z,24.95
2018-05-31T04:29:13.420Z,25.02
2018-05-31T04:32:15.913Z,24.92
2018-05-31T04:35:18.470Z,25.25
2018-05-31T04:38:21.000Z,26.09
2018-05-31T04:41:23.499Z,26.32
2018-05-31T04:44:26.021Z,27.57
2018-05-31T04:47:28.687Z,27.96
2018-05-31T04:50:31.195Z,27.88
2018-05-31T04:53:33.744Z,28.19
2018-05-31T04:56:36.319Z,28.82
2018-05-31T04:59:38.842Z,28.49
2018-05-31T05:02:41.311Z,28.98
2018-05-31T05:05:43.843Z,29.00
2018-05-31T05:08:46.317Z,29.45
2018-05-31T05:11:48.846Z,30.12
2018-05-31T05:14:51.399Z,31.56
2018-05-31T05:17:53.924Z,30.67
2018-05-31T05:20:56.447Z,30.18
2018-05-31T05:23:58.965Z,30.56
2018-05-31T05:27:01.461Z,31.01
2018-05-31T05:30:03.964Z,31.69
2018-05-31T05:33:06.508Z,31.23
2018-05-31T05:36:09.025Z,30.55
2018-05-31T05:39:11.656Z,29.27
2018-05-31T05:42:14.152Z,28.95
2018-05-31T05:45:16.628Z,29.48
2018-05-31T05:48:19.106Z,29.80
2018-05-31T05:51:21.621Z,30.69
2018-05-31T05:54:24.136Z,30.84
2018-05-31T05:57:26.622Z,31.30
2018-05-31T06:00:29.286Z,31.71
2018-05-31T06:03:31.770Z,31.75
2018-05-31T06:06:34.262Z,32.23
2018-05-31T06:09:36.840Z,31.33
2018-05-31T06:12:39.301Z,31.65
2018-05-31T06:15:41.884Z,32.05
2018-05-31T06:18:44.385Z,31.93
2018-05-31T06:21:46.898Z,31.55
2018-05-31T06:24:49.385Z,32.32
2018-05-31T06:27:51.839Z,31.18
2018-05-31T06:30:54.337Z,30.42
2018-05-31T06:33:56.791Z,29.91
2018-05-31T06:36:59.292Z,30.51
2018-05-31T06:40:01.853Z,30.77
2018-05-31T06:43:04.452Z,30.45
2018-05-31T06:46:06.931Z,31.35
2018-05-31T06:49:09.436Z,31.30
2018-05-31T06:52:11.918Z,30.87
2018-05-31T06:55:14.504Z,31.08
2018-05-31T06:58:17.056Z,30.51
2018-05-31T07:01:19.592Z,29.38
2018-05-31T07:04:23.311Z,28.75
2018-05-31T07:07:25.793Z,28.74
2018-05-31T07:10:28.266Z,28.11
2018-05-31T07:13:30.781Z,28.11
2018-05-31T07:16:33.235Z,27.52
2018-05-31T07:19:35.841Z,27.35
2018-05-31T07:22:38.310Z,26.97
2018-05-31T07:25:40.782Z,26.36
2018-05-31T07:28:43.238Z,27.02
2018-05-31T07:31:45.747Z,26.45
2018-05-31T07:34:48.207Z,26.43
2018-05-31T07:37:50.792Z,26.64
2018-05-31T07:40:53.272Z,26.85
2018-05-31T07:43:55.767Z,26.39
2018-05-31T07:46:58.337Z,26.84
2018-05-31T07:50:00.834Z,27.02
2018-05-31T07:53:03.710Z,26.84
2018-05-31T07:56:06.160Z,27.02
2018-05-31T07:59:08.753Z,27.14
2018-05-31T08:02:11.216Z,27.16
2018-05-31T08:05:13.788Z,27.06
2018-05-31T08:08:16.307Z,27.37
2018-05-31T08:11:18.870Z,27.28
2018-05-31T08:14:21.328Z,26.66
2018-05-31T08:17:23.843Z,27.19
2018-05-31T08:20:26.372Z,27.20
2018-05-31T08:23:28.844Z,27.37
2018-05-31T08:26:31.377Z,27.01
2018-05-31T08:29:33.937Z,27.23
2018-05-31T08:32:36.569Z,27.42
2018-05-31T08:35:39.062Z,27.41
2018-05-31T08:38:41.544Z,27.67
2018-05-31T08:41:44.062Z,27.73
2018-05-31T08:44:46.607Z,27.63
2018-05-31T08:47:49.133Z,27.42
2018-05-31T08:50:51.627Z,27.49
2018-05-31T08:53:54.117Z,27.64
2018-05-31T08:56:56.615Z,27.74
2018-05-31T08:59:59.152Z,27.70
2018-05-31T09:03:01.713Z,27.74
2018-05-31T09:06:04.207Z,27.69
2018-05-31T09:09:06.685Z,27.66
2018-05-31T09:12:09.181Z,27.45
2018-05-31T09:15:11.728Z,27.32
2018-05-31T09:18:14.249Z,27.16
2018-05-31T09:21:16.816Z,26.81
2018-05-31T09:24:19.413Z,26.86
2018-05-31T09:27:22.000Z,26.91
2018-05-31T09:30:24.574Z,26.95
2018-05-31T09:33:27.063Z,27.16
2018-05-31T09:36:29.547Z,27.21
2018-05-31T09:39:31.979Z,27.25
2018-05-31T09:42:34.500Z,27.53
2018-05-31T09:45:36.990Z,27.54
2018-05-31T09:48:39.575Z,27.56
2018-05-31T09:51:42.052Z,27.67
2018-05-31T09:54:44.532Z,28.00
2018-05-31T09:57:47.068Z,27.95
2018-05-31T10:00:49.600Z,28.01
2018-05-31T10:03:52.207Z,28.21
2018-05-31T10:06:54.734Z,28.17
2018-05-31T10:09:57.214Z,28.45
2018-05-31T10:12:59.704Z,28.34
2018-05-31T10:16:02.240Z,28.14
2018-05-31T10:19:04.698Z,27.95
2018-05-31T10:22:07.259Z,28.18
2018-05-31T10:25:09.793Z,28.56
2018-05-31T10:28:12.353Z,28.47
2018-05-31T10:31:14.886Z,28.31
2018-05-31T10:34:17.475Z,28.42
2018-05-31T10:37:19.943Z,28.71
2018-05-31T10:40:22.474Z,28.61
2018-05-31T10:43:24.995Z,28.23
2018-05-31T10:46:27.563Z,28.44
2018-05-31T10:49:30.062Z,28.49
2018-05-31T10:52:32.524Z,28.59
2018-05-31T10:55:35.105Z,28.58
2018-05-31T10:58:37.598Z,28.53
2018-05-31T11:01:40.131Z,28.39
2018-05-31T11:04:42.726Z,28.23
2018-05-31T11:07:45.258Z,28.21
2018-05-31T11:10:47.780Z,28.29
2018-05-31T11:13:50.702Z,28.21
2018-05-31T11:16:53.196Z,28.42
2018-05-31T11:19:55.781Z,28.56
2018-05-31T11:22:58.236Z,28.76
2018-05-31T11:26:00.759Z,29.06
2018-05-31T11:29:03.249Z,29.21
2018-05-31T11:32:05.779Z,29.28
2018-05-31T11:35:08.259Z,29.42
2018-05-31T11:38:10.736Z,29.65
2018-05-31T11:41:13.216Z,29.58
2018-05-31T11:44:15.806Z,29.35
2018-05-31T11:47:18.346Z,28.86
2018-05-31T11:50:20.824Z,28.37
2018-05-31T11:53:23.395Z,28.43
2018-05-31T11:56:25.917Z,28.76
2018-05-31T11:59:28.541Z,29.12
2018-05-31T12:02:31.079Z,29.26
2018-05-31T12:05:33.557Z,29.54
2018-05-31T12:08:36.090Z,29.32
2018-05-31T12:11:38.550Z,29.15
2018-05-31T12:14:41.051Z,29.09
2018-05-31T12:17:43.586Z,29.13
2018-05-31T12:20:46.121Z,28.97
2018-05-31T12:23:48.613Z,28.71
2018-05-31T12:26:51.179Z,28.61
2018-05-31T12:29:53.699Z,28.85
2018-05-31T12:32:56.196Z,29.17
2018-05-31T12:35:58.711Z,29.23
2018-05-31T12:39:01.226Z,29.50
2018-05-31T12:42:03.777Z,29.38
2018-05-31T12:45:06.275Z,29.64
2018-05-31T12:48:08.781Z,29.60
2018-05-31T12:51:11.320Z,29.12
2018-05-31T12:54:13.825Z,28.55
2018-05-31T12:57:16.304Z,28.49
2018-05-31T13:00:18.774Z,28.84
2018-05-31T13:03:21.276Z,29.03
2018-05-31T13:06:23.766Z,29.04
2018-05-31T13:09:26.638Z,29.23
2018-05-31T13:12:29.115Z,29.23
2018-05-31T13:15:31.612Z,29.37
2018-05-31T13:18:34.066Z,29.37
2018-05-31T13:21:36.661Z,29.18
2018-05-31T13:24:39.255Z,29.18
2018-05-31T13:27:41.740Z,28.79
2018-05-31T13:30:44.301Z,28.98
2018-05-31T13:33:46.760Z,29.11
2018-05-31T13:36:49.283Z,29.12
2018-05-31T13:39:51.742Z,29.24
2018-05-31T13:42:56.165Z,29.19
2018-05-31T13:45:58.671Z,29.17
2018-05-31T13:49:01.282Z,29.22
2018-05-31T13:52:03.865Z,29.36
2018-05-31T13:55:06.402Z,29.46
2018-05-31T13:58:08.920Z,29.56
2018-05-31T14:01:11.430Z,29.66
2018-05-31T14:04:13.888Z,29.68
2018-05-31T14:07:16.482Z,29.64
2018-05-31T14:10:18.977Z,29.45
2018-05-31T14:13:21.542Z,29.62
2018-05-31T14:16:24.059Z,29.44
2018-05-31T14:19:26.546Z,29.46
2018-05-31T14:22:29.093Z,29.60
2018-05-31T14:25:31.611Z,29.53
2018-05-31T14:28:34.101Z,29.38
2018-05-31T14:31:36.655Z,29.49
2018-05-31T14:34:44.452Z,29.29
2018-05-31T14:37:48.447Z,29.22
2018-05-31T14:40:50.922Z,29.22
2018-05-31T14:43:53.552Z,29.38
2018-05-31T14:46:56.032Z,29.49
2018-05-31T14:49:58.614Z,29.33
2018-05-31T14:53:01.052Z,29.60
2018-05-31T14:56:03.556Z,29.57
2018-05-31T14:59:06.142Z,29.53
2018-05-31T15:02:08.668Z,29.44
2018-05-31T15:05:11.207Z,29.35
2018-05-31T15:08:13.703Z,29.42
2018-05-31T15:11:16.214Z,29.51
2018-05-31T15:14:18.697Z,29.59
2018-05-31T15:17:21.312Z,29.77
2018-05-31T15:20:23.831Z,29.87
2018-05-31T15:23:26.326Z,29.41
2018-05-31T15:26:29.828Z,29.39
2018-05-31T15:29:32.296Z,29.56
2018-05-31T15:32:34.847Z,29.72
2018-05-31T15:35:37.326Z,29.77
2018-05-31T15:38:39.908Z,30.03
2018-05-31T15:41:42.394Z,29.88
2018-05-31T15:44:44.920Z,29.60
2018-05-31T15:47:47.443Z,29.68
2018-05-31T15:50:49.969Z,29.30
2018-05-31T15:53:52.476Z,29.03
2018-05-31T15:56:55.030Z,29.07
2018-05-31T15:59:57.554Z,28.84
2018-05-31T16:03:00.091Z,28.92
2018-05-31T16:06:02.606Z,29.19
2018-05-31T16:09:05.973Z,28.91
2018-05-31T16:12:08.476Z,28.94
2018-05-31T16:15:11.027Z,28.70
2018-05-31T16:18:13.661Z,28.25
2018-05-31T16:21:16.169Z,28.23
2018-05-31T16:24:18.633Z,27.79
2018-05-31T16:27:21.147Z,27.79
2018-05-31T16:30:23.646Z,27.54
2018-05-31T16:33:26.117Z,27.34
2018-05-31T16:36:28.680Z,27.25
2018-05-31T16:39:31.231Z,27.21
2018-05-31T16:42:33.808Z,27.06
2018-05-31T16:45:36.375Z,26.89
2018-05-31T16:48:38.929Z,26.70
2018-05-31T16:51:41.452Z,26.61
2018-05-31T16:54:43.965Z,26.61
2018-05-31T16:57:46.472Z,26.48
2018-05-31T17:00:48.936Z,26.46
2018-05-31T17:03:51.488Z,26.33
2018-05-31T17:06:53.923Z,26.40
2018-05-31T17:09:56.418Z,26.25
2018-05-31T17:12:58.928Z,26.35
2018-05-31T17:16:01.410Z,26.31
2018-05-31T17:19:03.931Z,26.27
2018-05-31T17:22:06.398Z,26.22
2018-05-31T17:25:08.898Z,26.10
2018-05-31T17:28:11.474Z,25.96
2018-05-31T17:31:13.943Z,25.82
2018-05-31T17:34:16.454Z,25.72
2018-05-31T17:37:18.912Z,25.71
2018-05-31T17:40:21.413Z,25.58
2018-05-31T17:43:23.933Z,25.29
2018-05-31T17:46:26.573Z,24.92
2018-05-31T17:49:29.173Z,23.99
2018-05-31T17:52:31.720Z,23.88
2018-05-31T17:55:34.248Z,23.77
2018-05-31T17:58:36.979Z,23.35
2018-05-31T18:01:39.628Z,23.17
2018-05-31T18:04:42.090Z,22.88
2018-05-31T18:07:44.644Z,22.86
2018-05-31T18:10:47.120Z,22.79
2018-05-31T18:13:49.595Z,22.87
2018-05-31T18:16:52.103Z,23.06
2018-05-31T18:19:54.799Z,22.84
2018-05-31T18:22:57.320Z,22.67
2018-05-31T18:25:59.890Z,22.48
2018-05-31T18:29:02.335Z,22.55
2018-05-31T18:32:04.813Z,22.29
2018-05-31T18:35:07.308Z,22.18
2018-05-31T18:38:09.862Z,22.14
2018-05-31T18:41:12.338Z,22.13
2018-05-31T18:44:14.858Z,22.01
2018-05-31T18:47:17.300Z,21.90
2018-05-31T18:50:19.924Z,21.92
2018-05-31T18:53:22.431Z,21.91
2018-05-31T18:56:24.856Z,21.89
2018-05-31T18:59:27.407Z,22.01
2018-05-31T19:02:29.889Z,21.89
2018-05-31T19:05:32.401Z,21.75
2018-05-31T19:08:34.917Z,21.69
2018-05-31T19:11:37.539Z,21.75
2018-05-31T19:14:40.043Z,21.77
2018-05-31T19:17:42.515Z,21.72
2018-05-31T19:20:44.999Z,21.59
2018-05-31T19:23:47.483Z,21.54
2018-05-31T19:26:50.114Z,21.49
2018-05-31T19:29:52.607Z,21.39
2018-05-31T19:32:55.095Z,21.37
2018-05-31T19:36:03.470Z,21.23
2018-05-31T19:39:05.938Z,21.22
2018-05-31T19:42:14.060Z,21.24
2018-05-31T19:45:16.580Z,21.17
2018-05-31T19:48:19.128Z,21.19
2018-05-31T19:51:27.280Z,21.14
2018-05-31T19:54:29.865Z,21.09
2018-05-31T19:57:32.519Z,21.09
2018-05-31T20:00:40.578Z,21.14
2018-05-31T20:03:43.171Z,21.15
2018-05-31T20:06:45.801Z,21.20
2018-05-31T20:09:48.343Z,21.11
2018-05-31T20:12:50.899Z,21.02
2018-05-31T20:15:53.371Z,20.99
2018-05-31T20:18:55.933Z,20.94
2018-05-31T20:21:58.440Z,20.91
2018-05-31T20:25:00.965Z,20.87
2018-05-31T20:28:03.455Z,20.92
2018-05-31T20:31:05.981Z,20.88
2018-05-31T20:34:08.516Z,20.85
2018-05-31T20:37:11.014Z,20.83
2018-05-31T20:40:13.581Z,20.81
2018-05-31T20:43:16.215Z,20.77
2018-05-31T20:46:18.699Z,20.79
2018-05-31T20:49:21.345Z,20.75
2018-05-31T20:52:23.823Z,20.77
2018-05-31T20:55:26.300Z,20.77
2018-05-31T20:58:28.844Z,20.78
2018-05-31T21:01:31.411Z,20.81
2018-05-31T21:04:33.974Z,20.87
2018-05-31T21:07:36.464Z,20.92
2018-05-31T21:10:39.035Z,20.94
2018-05-31T21:13:41.561Z,20.98
2018-05-31T21:16:44.141Z,20.94
2018-05-31T21:19:46.771Z,20.89
2018-05-31T21:22:49.318Z,20.92
2018-05-31T21:25:51.876Z,20.91
2018-05-31T21:28:54.404Z,20.89
2018-05-31T21:31:56.921Z,20.90
2018-05-31T21:34:59.474Z,20.86
2018-05-31T21:38:02.487Z,20.90
2018-05-31T21:41:04.996Z,20.85
2018-05-31T21:44:07.572Z,20.80
2018-05-31T21:47:10.967Z,20.77
2018-05-31T21:50:13.512Z,20.72
2018-05-31T21:53:16.082Z,20.73
2018-05-31T21:56:18.582Z,20.74
2018-05-31T21:59:21.052Z,20.75
2018-05-31T22:02:24.902Z,20.73
2018-05-31T22:05:27.380Z,20.73
2018-05-31T22:08:29.906Z,20.72
2018-05-31T22:11:32.387Z,20.75
2018-05-31T22:14:34.936Z,20.78
2018-05-31T22:17:37.421Z,20.76
2018-05-31T22:20:39.965Z,20.75
2018-05-31T22:23:42.472Z,20.73
2018-05-31T22:26:44.976Z,20.72
2018-05-31T22:29:47.482Z,20.69
2018-05-31T22:32:49.975Z,20.66
2018-05-31T22:35:52.500Z,20.76
2018-05-31T22:38:54.967Z,20.73
2018-05-31T22:41:57.482Z,20.69
2018-05-31T22:44:59.981Z,20.71
2018-05-31T22:48:02.502Z,20.76
2018-05-31T22:51:05.041Z,20.78
2018-05-31T22:54:07.495Z,20.79
2018-05-31T22:57:10.016Z,20.75
2018-05-31T23:00:12.583Z,20.81
2018-05-31T23:03:15.057Z,20.75
2018-05-31T23:06:17.693Z,20.72
2018-05-31T23:09:20.252Z,20.71
2018-05-31T23:12:22.810Z,20.70
2018-05-31T23:15:25.290Z,20.71
2018-05-31T23:18:27.813Z,20.68
2018-05-31T23:21:30.337Z,20.65
2018-05-31T23:24:32.961Z,20.64
2018-05-31T23:27:35.412Z,20.63
2018-05-31T23:30:37.978Z,20.66
2018-05-31T23:33:40.445Z,20.64
2018-05-31T23:36:42.945Z,20.58
2018-05-31T23:39:45.467Z,20.57
2018-05-31T23:42:48.034Z,20.57
2018-05-31T23:45:50.594Z,20.58
2018-05-31T23:48:53.135Z,20.57
2018-05-31T23:51:55.609Z,20.55
2018-05-31T23:54:58.126Z,20.51
2018-05-31T23:58:00.565Z,20.48
